sensor_id;sensor_type;location;lat;lon;timestamp;P1;durP1;ratioP1;P2;durP2;ratioP2
44774;SDS011;31340;51.402;0.016;2023-05-10T00:00:56;11.63;;;5.15;;
44774;SDS011;31340;51.402;0.016;2023-05-10T00:03:24;8.70;;;4.13;;
44774;SDS011;31340;51.402;0.016;2023-05-10T00:05:52;9.88;;;4.25;;
44774;SDS011;31340;51.402;0.016;2023-05-10T00:08:19;8.43;;;4.28;;
44774;SDS011;31340;51.402;0.016;2023-05-10T00:10:47;7.22;;;3.58;;
44774;SDS011;31340;51.402;0.016;2023-05-10T00:13:14;5.55;;;3.65;;
44774;SDS011;31340;51.402;0.016;2023-05-10T00:15:42;12.07;;;4.30;;
44774;SDS011;31340;51.402;0.016;2023-05-10T00:18:10;7.78;;;4.22;;
44774;SDS011;31340;51.402;0.016;2023-05-10T00:20:37;9.82;;;4.35;;
44774;SDS011;31340;51.402;0.016;2023-05-10T00:23:05;10.15;;;4.30;;
44774;SDS011;31340;51.402;0.016;2023-05-10T00:25:33;7.20;;;4.57;;
44774;SDS011;31340;51.402;0.016;2023-05-10T00:28:00;9.32;;;4.38;;
44774;SDS011;31340;51.402;0.016;2023-05-10T00:30:28;11.02;;;4.78;;
44774;SDS011;31340;51.402;0.016;2023-05-10T00:32:56;6.53;;;4.20;;
44774;SDS011;31340;51.402;0.016;2023-05-10T00:35:24;11.88;;;5.20;;
44774;SDS011;31340;51.402;0.016;2023-05-10T00:37:51;8.43;;;4.43;;
44774;SDS011;31340;51.402;0.016;2023-05-10T00:40:20;7.93;;;4.47;;
44774;SDS011;31340;51.402;0.016;2023-05-10T00:42:52;13.82;;;5.30;;
44774;SDS011;31340;51.402;0.016;2023-05-10T00:45:20;10.88;;;4.65;;
44774;SDS011;31340;51.402;0.016;2023-05-10T00:47:48;8.23;;;4.95;;
44774;SDS011;31340;51.402;0.016;2023-05-10T00:50:16;9.48;;;5.07;;
44774;SDS011;31340;51.402;0.016;2023-05-10T00:52:45;10.27;;;4.93;;
44774;SDS011;31340;51.402;0.016;2023-05-10T00:55:13;10.48;;;5.63;;
44774;SDS011;31340;51.402;0.016;2023-05-10T00:57:41;9.93;;;5.53;;
44774;SDS011;31340;51.402;0.016;2023-05-10T01:00:09;9.18;;;6.00;;
44774;SDS011;31340;51.402;0.016;2023-05-10T01:02:38;10.55;;;5.13;;
44774;SDS011;31340;51.402;0.016;2023-05-10T01:05:07;9.98;;;5.63;;
44774;SDS011;31340;51.402;0.016;2023-05-10T01:07:35;13.63;;;6.25;;
44774;SDS011;31340;51.402;0.016;2023-05-10T01:10:03;11.68;;;6.40;;
44774;SDS011;31340;51.402;0.016;2023-05-10T01:12:32;11.90;;;7.03;;
44774;SDS011;31340;51.402;0.016;2023-05-10T01:15:02;14.45;;;7.65;;
44774;SDS011;31340;51.402;0.016;2023-05-10T01:17:32;13.38;;;6.97;;
44774;SDS011;31340;51.402;0.016;2023-05-10T01:20:00;10.32;;;5.85;;
44774;SDS011;31340;51.402;0.016;2023-05-10T01:34:06;14.40;;;7.35;;
44774;SDS011;31340;51.402;0.016;2023-05-10T01:36:58;16.45;;;7.43;;
44774;SDS011;31340;51.402;0.016;2023-05-10T01:39:43;17.33;;;8.13;;
44774;SDS011;31340;51.402;0.016;2023-05-10T01:42:14;14.07;;;7.90;;
44774;SDS011;31340;51.402;0.016;2023-05-10T01:47:44;14.38;;;7.63;;
44774;SDS011;31340;51.402;0.016;2023-05-10T01:50:19;12.60;;;8.40;;
44774;SDS011;31340;51.402;0.016;2023-05-10T01:52:53;13.98;;;8.20;;
44774;SDS011;31340;51.402;0.016;2023-05-10T01:55:24;14.85;;;8.27;;
44774;SDS011;31340;51.402;0.016;2023-05-10T01:57:58;17.35;;;8.65;;
44774;SDS011;31340;51.402;0.016;2023-05-10T02:00:35;11.55;;;7.32;;
44774;SDS011;31340;51.402;0.016;2023-05-10T02:03:05;16.80;;;9.40;;
44774;SDS011;31340;51.402;0.016;2023-05-10T02:05:34;16.58;;;9.40;;
44774;SDS011;31340;51.402;0.016;2023-05-10T02:08:05;15.40;;;8.73;;
44774;SDS011;31340;51.402;0.016;2023-05-10T02:10:36;15.10;;;8.70;;
44774;SDS011;31340;51.402;0.016;2023-05-10T02:13:07;18.10;;;8.60;;
44774;SDS011;31340;51.402;0.016;2023-05-10T02:15:36;15.40;;;8.88;;
44774;SDS011;31340;51.402;0.016;2023-05-10T02:18:05;16.10;;;8.45;;
44774;SDS011;31340;51.402;0.016;2023-05-10T02:20:35;17.33;;;8.80;;
44774;SDS011;31340;51.402;0.016;2023-05-10T02:23:04;16.48;;;8.43;;
44774;SDS011;31340;51.402;0.016;2023-05-10T02:25:33;19.70;;;9.98;;
44774;SDS011;31340;51.402;0.016;2023-05-10T02:28:03;18.67;;;8.52;;
44774;SDS011;31340;51.402;0.016;2023-05-10T02:30:35;15.93;;;8.68;;
44774;SDS011;31340;51.402;0.016;2023-05-10T02:33:04;14.43;;;8.50;;
44774;SDS011;31340;51.402;0.016;2023-05-10T02:35:33;12.87;;;7.87;;
44774;SDS011;31340;51.402;0.016;2023-05-10T02:38:02;15.85;;;8.75;;
44774;SDS011;31340;51.402;0.016;2023-05-10T02:40:31;15.18;;;8.00;;
44774;SDS011;31340;51.402;0.016;2023-05-10T02:43:01;15.88;;;7.53;;
44774;SDS011;31340;51.402;0.016;2023-05-10T02:45:31;12.65;;;7.25;;
44774;SDS011;31340;51.402;0.016;2023-05-10T02:48:02;14.60;;;7.72;;
44774;SDS011;31340;51.402;0.016;2023-05-10T02:50:30;22.25;;;8.38;;
44774;SDS011;31340;51.402;0.016;2023-05-10T02:53:00;16.20;;;8.45;;
44774;SDS011;31340;51.402;0.016;2023-05-10T02:55:35;12.10;;;7.20;;
44774;SDS011;31340;51.402;0.016;2023-05-10T02:58:06;19.38;;;8.70;;
44774;SDS011;31340;51.402;0.016;2023-05-10T03:00:33;16.85;;;8.02;;
44774;SDS011;31340;51.402;0.016;2023-05-10T03:03:02;16.48;;;7.55;;
44774;SDS011;31340;51.402;0.016;2023-05-10T03:05:30;18.90;;;7.38;;
44774;SDS011;31340;51.402;0.016;2023-05-10T03:08:00;16.73;;;8.35;;
44774;SDS011;31340;51.402;0.016;2023-05-10T03:10:31;12.50;;;7.72;;
44774;SDS011;31340;51.402;0.016;2023-05-10T03:13:04;14.48;;;7.85;;
44774;SDS011;31340;51.402;0.016;2023-05-10T03:15:47;20.65;;;8.90;;
44774;SDS011;31340;51.402;0.016;2023-05-10T03:20:59;18.17;;;8.38;;
44774;SDS011;31340;51.402;0.016;2023-05-10T03:23:34;19.55;;;9.05;;
44774;SDS011;31340;51.402;0.016;2023-05-10T03:26:07;15.65;;;8.05;;
44774;SDS011;31340;51.402;0.016;2023-05-10T03:28:36;18.30;;;8.50;;
44774;SDS011;31340;51.402;0.016;2023-05-10T03:31:06;19.35;;;8.65;;
44774;SDS011;31340;51.402;0.016;2023-05-10T03:33:35;17.35;;;8.27;;
44774;SDS011;31340;51.402;0.016;2023-05-10T03:36:02;13.70;;;8.43;;
44774;SDS011;31340;51.402;0.016;2023-05-10T03:38:30;16.25;;;8.20;;
44774;SDS011;31340;51.402;0.016;2023-05-10T03:40:58;17.10;;;7.63;;
44774;SDS011;31340;51.402;0.016;2023-05-10T03:43:26;13.45;;;8.18;;
44774;SDS011;31340;51.402;0.016;2023-05-10T03:45:54;14.20;;;8.13;;
44774;SDS011;31340;51.402;0.016;2023-05-10T03:48:21;16.10;;;8.45;;
44774;SDS011;31340;51.402;0.016;2023-05-10T03:50:49;17.92;;;9.88;;
44774;SDS011;31340;51.402;0.016;2023-05-10T03:53:17;17.00;;;9.15;;
44774;SDS011;31340;51.402;0.016;2023-05-10T03:55:44;15.88;;;8.68;;
44774;SDS011;31340;51.402;0.016;2023-05-10T03:58:12;16.08;;;8.43;;
44774;SDS011;31340;51.402;0.016;2023-05-10T04:00:40;22.00;;;9.93;;
44774;SDS011;31340;51.402;0.016;2023-05-10T04:03:12;17.92;;;7.93;;
44774;SDS011;31340;51.402;0.016;2023-05-10T04:05:40;16.38;;;9.10;;
44774;SDS011;31340;51.402;0.016;2023-05-10T04:08:08;16.80;;;9.82;;
44774;SDS011;31340;51.402;0.016;2023-05-10T04:10:36;21.92;;;10.70;;
44774;SDS011;31340;51.402;0.016;2023-05-10T04:13:04;24.10;;;10.25;;
44774;SDS011;31340;51.402;0.016;2023-05-10T04:15:32;21.92;;;11.10;;
44774;SDS011;31340;51.402;0.016;2023-05-10T04:17:59;22.10;;;9.65;;
44774;SDS011;31340;51.402;0.016;2023-05-10T04:20:27;23.77;;;11.15;;
44774;SDS011;31340;51.402;0.016;2023-05-10T04:22:55;19.17;;;9.73;;
44774;SDS011;31340;51.402;0.016;2023-05-10T04:25:22;16.23;;;8.77;;
44774;SDS011;31340;51.402;0.016;2023-05-10T04:27:50;18.55;;;10.07;;
44774;SDS011;31340;51.402;0.016;2023-05-10T04:30:18;24.98;;;10.75;;
44774;SDS011;31340;51.402;0.016;2023-05-10T04:32:46;23.25;;;10.38;;
44774;SDS011;31340;51.402;0.016;2023-05-10T04:35:13;26.80;;;12.15;;
44774;SDS011;31340;51.402;0.016;2023-05-10T04:37:42;23.85;;;10.80;;
44774;SDS011;31340;51.402;0.016;2023-05-10T04:40:10;22.50;;;10.30;;
44774;SDS011;31340;51.402;0.016;2023-05-10T04:42:39;22.92;;;11.68;;
44774;SDS011;31340;51.402;0.016;2023-05-10T04:45:08;23.85;;;11.75;;
44774;SDS011;31340;51.402;0.016;2023-05-10T04:47:37;26.35;;;13.13;;
44774;SDS011;31340;51.402;0.016;2023-05-10T04:50:05;21.30;;;11.05;;
44774;SDS011;31340;51.402;0.016;2023-05-10T04:52:33;22.88;;;11.30;;
44774;SDS011;31340;51.402;0.016;2023-05-10T04:55:00;20.25;;;9.80;;
44774;SDS011;31340;51.402;0.016;2023-05-10T04:57:28;24.15;;;11.93;;
44774;SDS011;31340;51.402;0.016;2023-05-10T04:59:55;19.95;;;10.90;;
44774;SDS011;31340;51.402;0.016;2023-05-10T05:02:23;22.15;;;10.85;;
44774;SDS011;31340;51.402;0.016;2023-05-10T05:04:51;23.58;;;11.13;;
44774;SDS011;31340;51.402;0.016;2023-05-10T05:07:18;24.75;;;11.05;;
44774;SDS011;31340;51.402;0.016;2023-05-10T05:09:47;21.73;;;10.88;;
44774;SDS011;31340;51.402;0.016;2023-05-10T05:12:14;25.95;;;12.52;;
44774;SDS011;31340;51.402;0.016;2023-05-10T05:14:43;32.20;;;12.85;;
44774;SDS011;31340;51.402;0.016;2023-05-10T05:17:11;24.83;;;11.30;;
44774;SDS011;31340;51.402;0.016;2023-05-10T05:19:38;26.77;;;12.13;;
44774;SDS011;31340;51.402;0.016;2023-05-10T05:22:06;27.35;;;12.05;;
44774;SDS011;31340;51.402;0.016;2023-05-10T05:24:35;24.13;;;11.68;;
44774;SDS011;31340;51.402;0.016;2023-05-10T05:29:34;23.10;;;11.60;;
44774;SDS011;31340;51.402;0.016;2023-05-10T05:32:01;28.02;;;13.32;;
44774;SDS011;31340;51.402;0.016;2023-05-10T05:34:29;29.50;;;13.45;;
44774;SDS011;31340;51.402;0.016;2023-05-10T05:36:57;27.63;;;12.40;;
44774;SDS011;31340;51.402;0.016;2023-05-10T05:39:24;29.23;;;12.00;;
44774;SDS011;31340;51.402;0.016;2023-05-10T05:41:52;25.15;;;12.20;;
44774;SDS011;31340;51.402;0.016;2023-05-10T05:44:20;26.60;;;13.82;;
44774;SDS011;31340;51.402;0.016;2023-05-10T05:46:47;25.60;;;12.93;;
44774;SDS011;31340;51.402;0.016;2023-05-10T05:49:15;30.80;;;15.15;;
44774;SDS011;31340;51.402;0.016;2023-05-10T05:51:43;24.67;;;13.02;;
44774;SDS011;31340;51.402;0.016;2023-05-10T05:54:12;26.20;;;13.43;;
44774;SDS011;31340;51.402;0.016;2023-05-10T05:56:39;23.20;;;12.85;;
44774;SDS011;31340;51.402;0.016;2023-05-10T05:59:07;33.20;;;14.93;;
44774;SDS011;31340;51.402;0.016;2023-05-10T06:01:35;34.45;;;15.57;;
44774;SDS011;31340;51.402;0.016;2023-05-10T06:04:03;30.50;;;14.55;;
44774;SDS011;31340;51.402;0.016;2023-05-10T06:06:30;28.85;;;14.30;;
44774;SDS011;31340;51.402;0.016;2023-05-10T06:08:59;29.42;;;15.25;;
44774;SDS011;31340;51.402;0.016;2023-05-10T06:11:26;33.72;;;15.70;;
44774;SDS011;31340;51.402;0.016;2023-05-10T06:13:54;33.70;;;15.70;;
44774;SDS011;31340;51.402;0.016;2023-05-10T06:16:21;37.53;;;16.17;;
44774;SDS011;31340;51.402;0.016;2023-05-10T06:18:49;33.55;;;15.18;;
44774;SDS011;31340;51.402;0.016;2023-05-10T06:21:16;27.48;;;14.70;;
44774;SDS011;31340;51.402;0.016;2023-05-10T06:23:44;29.92;;;14.18;;
44774;SDS011;31340;51.402;0.016;2023-05-10T06:26:12;26.13;;;14.25;;
44774;SDS011;31340;51.402;0.016;2023-05-10T06:28:40;29.38;;;12.95;;
44774;SDS011;31340;51.402;0.016;2023-05-10T06:31:08;27.92;;;13.57;;
44774;SDS011;31340;51.402;0.016;2023-05-10T06:33:36;28.60;;;12.80;;
44774;SDS011;31340;51.402;0.016;2023-05-10T06:36:03;24.25;;;12.07;;
44774;SDS011;31340;51.402;0.016;2023-05-10T06:38:31;30.38;;;12.05;;
44774;SDS011;31340;51.402;0.016;2023-05-10T06:40:58;26.67;;;12.48;;
44774;SDS011;31340;51.402;0.016;2023-05-10T06:43:26;19.35;;;10.57;;
44774;SDS011;31340;51.402;0.016;2023-05-10T06:45:55;26.85;;;12.45;;
44774;SDS011;31340;51.402;0.016;2023-05-10T06:48:23;24.25;;;11.20;;
44774;SDS011;31340;51.402;0.016;2023-05-10T06:50:50;24.23;;;10.73;;
44774;SDS011;31340;51.402;0.016;2023-05-10T06:53:18;21.73;;;11.23;;
44774;SDS011;31340;51.402;0.016;2023-05-10T06:55:46;27.52;;;11.85;;
44774;SDS011;31340;51.402;0.016;2023-05-10T06:58:13;25.95;;;12.02;;
44774;SDS011;31340;51.402;0.016;2023-05-10T07:00:40;23.60;;;11.00;;
44774;SDS011;31340;51.402;0.016;2023-05-10T07:03:10;22.80;;;11.02;;
44774;SDS011;31340;51.402;0.016;2023-05-10T07:05:38;21.98;;;10.15;;
44774;SDS011;31340;51.402;0.016;2023-05-10T07:08:05;23.65;;;10.50;;
44774;SDS011;31340;51.402;0.016;2023-05-10T07:10:33;21.02;;;9.70;;
44774;SDS011;31340;51.402;0.016;2023-05-10T07:13:01;24.52;;;10.88;;
44774;SDS011;31340;51.402;0.016;2023-05-10T07:15:29;21.73;;;9.82;;
44774;SDS011;31340;51.402;0.016;2023-05-10T07:17:56;25.98;;;10.55;;
44774;SDS011;31340;51.402;0.016;2023-05-10T07:20:24;19.80;;;9.27;;
44774;SDS011;31340;51.402;0.016;2023-05-10T07:22:52;23.35;;;9.73;;
44774;SDS011;31340;51.402;0.016;2023-05-10T07:25:20;19.20;;;8.55;;
44774;SDS011;31340;51.402;0.016;2023-05-10T07:27:47;19.42;;;9.45;;
44774;SDS011;31340;51.402;0.016;2023-05-10T07:30:15;19.67;;;9.38;;
44774;SDS011;31340;51.402;0.016;2023-05-10T07:32:42;24.35;;;9.93;;
44774;SDS011;31340;51.402;0.016;2023-05-10T07:35:10;19.05;;;7.93;;
44774;SDS011;31340;51.402;0.016;2023-05-10T07:37:39;25.50;;;8.52;;
44774;SDS011;31340;51.402;0.016;2023-05-10T07:40:07;19.60;;;8.30;;
44774;SDS011;31340;51.402;0.016;2023-05-10T07:42:35;28.38;;;9.68;;
44774;SDS011;31340;51.402;0.016;2023-05-10T07:45:03;21.77;;;8.73;;
44774;SDS011;31340;51.402;0.016;2023-05-10T07:47:31;22.70;;;8.50;;
44774;SDS011;31340;51.402;0.016;2023-05-10T07:49:58;22.27;;;8.25;;
44774;SDS011;31340;51.402;0.016;2023-05-10T07:52:26;22.45;;;7.50;;
44774;SDS011;31340;51.402;0.016;2023-05-10T07:54:53;22.15;;;6.28;;
44774;SDS011;31340;51.402;0.016;2023-05-10T07:57:21;17.48;;;6.95;;
44774;SDS011;31340;51.402;0.016;2023-05-10T07:59:49;18.42;;;6.90;;
44774;SDS011;31340;51.402;0.016;2023-05-10T08:02:16;20.33;;;6.78;;
44774;SDS011;31340;51.402;0.016;2023-05-10T08:04:44;18.10;;;6.03;;
44774;SDS011;31340;51.402;0.016;2023-05-10T08:07:12;24.52;;;7.68;;
44774;SDS011;31340;51.402;0.016;2023-05-10T08:09:40;18.67;;;6.75;;
44774;SDS011;31340;51.402;0.016;2023-05-10T08:12:07;22.15;;;6.78;;
44774;SDS011;31340;51.402;0.016;2023-05-10T08:14:35;16.85;;;5.80;;
44774;SDS011;31340;51.402;0.016;2023-05-10T08:17:05;16.98;;;6.15;;
44774;SDS011;31340;51.402;0.016;2023-05-10T08:19:33;11.88;;;5.60;;
44774;SDS011;31340;51.402;0.016;2023-05-10T08:22:00;19.23;;;5.88;;
44774;SDS011;31340;51.402;0.016;2023-05-10T08:24:28;17.10;;;5.78;;
44774;SDS011;31340;51.402;0.016;2023-05-10T08:26:55;14.63;;;5.15;;
44774;SDS011;31340;51.402;0.016;2023-05-10T08:29:23;22.85;;;5.57;;
44774;SDS011;31340;51.402;0.016;2023-05-10T08:34:21;19.02;;;5.50;;
44774;SDS011;31340;51.402;0.016;2023-05-10T08:36:49;16.52;;;5.28;;
44774;SDS011;31340;51.402;0.016;2023-05-10T08:39:17;19.00;;;5.30;;
44774;SDS011;31340;51.402;0.016;2023-05-10T08:41:57;20.38;;;5.60;;
44774;SDS011;31340;51.402;0.016;2023-05-10T08:44:31;16.45;;;5.18;;
44774;SDS011;31340;51.402;0.016;2023-05-10T08:47:02;20.23;;;6.25;;
44774;SDS011;31340;51.402;0.016;2023-05-10T08:49:33;19.05;;;4.82;;
44774;SDS011;31340;51.402;0.016;2023-05-10T08:52:02;11.02;;;4.53;;
44774;SDS011;31340;51.402;0.016;2023-05-10T08:54:34;15.88;;;4.78;;
44774;SDS011;31340;51.402;0.016;2023-05-10T08:57:03;17.20;;;5.45;;
44774;SDS011;31340;51.402;0.016;2023-05-10T08:59:31;17.60;;;5.45;;
44774;SDS011;31340;51.402;0.016;2023-05-10T09:01:59;18.13;;;5.05;;
44774;SDS011;31340;51.402;0.016;2023-05-10T09:04:29;15.70;;;5.13;;
44774;SDS011;31340;51.402;0.016;2023-05-10T09:06:57;12.70;;;5.07;;
44774;SDS011;31340;51.402;0.016;2023-05-10T09:09:25;12.25;;;4.85;;
44774;SDS011;31340;51.402;0.016;2023-05-10T09:11:55;16.15;;;4.82;;
44774;SDS011;31340;51.402;0.016;2023-05-10T09:14:23;13.25;;;4.97;;
44774;SDS011;31340;51.402;0.016;2023-05-10T09:16:52;11.90;;;4.70;;
44774;SDS011;31340;51.402;0.016;2023-05-10T09:19:22;16.38;;;4.70;;
44774;SDS011;31340;51.402;0.016;2023-05-10T09:21:49;23.08;;;6.53;;
44774;SDS011;31340;51.402;0.016;2023-05-10T09:24:17;12.48;;;5.10;;
44774;SDS011;31340;51.402;0.016;2023-05-10T09:26:48;19.35;;;6.10;;
44774;SDS011;31340;51.402;0.016;2023-05-10T09:29:16;12.40;;;4.40;;
44774;SDS011;31340;51.402;0.016;2023-05-10T09:31:47;15.27;;;4.97;;
44774;SDS011;31340;51.402;0.016;2023-05-10T09:34:31;14.30;;;4.95;;
44774;SDS011;31340;51.402;0.016;2023-05-10T09:37:00;13.93;;;4.97;;
44774;SDS011;31340;51.402;0.016;2023-05-10T09:39:30;11.13;;;4.70;;
44774;SDS011;31340;51.402;0.016;2023-05-10T09:42:02;14.40;;;5.15;;
44774;SDS011;31340;51.402;0.016;2023-05-10T09:44:34;12.32;;;4.80;;
44774;SDS011;31340;51.402;0.016;2023-05-10T09:47:03;17.05;;;5.22;;
44774;SDS011;31340;51.402;0.016;2023-05-10T09:49:30;14.75;;;4.85;;
44774;SDS011;31340;51.402;0.016;2023-05-10T09:52:05;14.23;;;5.70;;
44774;SDS011;31340;51.402;0.016;2023-05-10T09:54:34;12.45;;;3.70;;
44774;SDS011;31340;51.402;0.016;2023-05-10T09:57:02;11.25;;;4.18;;
44774;SDS011;31340;51.402;0.016;2023-05-10T09:59:32;12.07;;;4.32;;
44774;SDS011;31340;51.402;0.016;2023-05-10T10:02:01;12.60;;;4.80;;
44774;SDS011;31340;51.402;0.016;2023-05-10T10:04:29;10.45;;;4.22;;
44774;SDS011;31340;51.402;0.016;2023-05-10T10:07:04;10.52;;;4.10;;
44774;SDS011;31340;51.402;0.016;2023-05-10T10:09:32;14.98;;;4.85;;
44774;SDS011;31340;51.402;0.016;2023-05-10T10:12:02;11.55;;;4.70;;
44774;SDS011;31340;51.402;0.016;2023-05-10T10:14:30;11.63;;;4.00;;
44774;SDS011;31340;51.402;0.016;2023-05-10T10:16:59;8.70;;;4.22;;
44774;SDS011;31340;51.402;0.016;2023-05-10T10:19:32;14.68;;;4.55;;
44774;SDS011;31340;51.402;0.016;2023-05-10T10:22:02;11.20;;;4.60;;
44774;SDS011;31340;51.402;0.016;2023-05-10T10:24:31;10.63;;;3.78;;
44774;SDS011;31340;51.402;0.016;2023-05-10T10:27:04;9.70;;;4.32;;
44774;SDS011;31340;51.402;0.016;2023-05-10T10:29:48;9.23;;;3.85;;
44774;SDS011;31340;51.402;0.016;2023-05-10T10:35:53;8.20;;;3.75;;
44774;SDS011;31340;51.402;0.016;2023-05-10T10:38:22;9.82;;;3.70;;
44774;SDS011;31340;51.402;0.016;2023-05-10T10:41:02;9.43;;;4.13;;
44774;SDS011;31340;51.402;0.016;2023-05-10T10:44:22;11.68;;;4.10;;
44774;SDS011;31340;51.402;0.016;2023-05-10T10:46:58;12.05;;;3.90;;
44774;SDS011;31340;51.402;0.016;2023-05-10T10:49:26;9.85;;;4.30;;
44774;SDS011;31340;51.402;0.016;2023-05-10T10:54:51;7.43;;;3.70;;
44774;SDS011;31340;51.402;0.016;2023-05-10T10:57:19;8.77;;;3.70;;
44774;SDS011;31340;51.402;0.016;2023-05-10T10:59:48;8.38;;;3.78;;
44774;SDS011;31340;51.402;0.016;2023-05-10T11:02:32;8.65;;;3.60;;
44774;SDS011;31340;51.402;0.016;2023-05-10T11:10:21;8.38;;;3.28;;
44774;SDS011;31340;51.402;0.016;2023-05-10T11:13:03;10.70;;;3.13;;
44774;SDS011;31340;51.402;0.016;2023-05-10T11:15:33;8.68;;;3.65;;
44774;SDS011;31340;51.402;0.016;2023-05-10T11:20:52;9.80;;;4.10;;
44774;SDS011;31340;51.402;0.016;2023-05-10T11:23:29;9.60;;;3.92;;
44774;SDS011;31340;51.402;0.016;2023-05-10T11:25:59;10.75;;;3.72;;
44774;SDS011;31340;51.402;0.016;2023-05-10T11:28:28;13.05;;;3.60;;
44774;SDS011;31340;51.402;0.016;2023-05-10T11:30:55;10.32;;;3.40;;
44774;SDS011;31340;51.402;0.016;2023-05-10T11:33:24;9.23;;;3.63;;
44774;SDS011;31340;51.402;0.016;2023-05-10T11:35:51;6.93;;;3.40;;
44774;SDS011;31340;51.402;0.016;2023-05-10T11:38:19;5.80;;;2.97;;
44774;SDS011;31340;51.402;0.016;2023-05-10T11:40:46;7.43;;;3.60;;
44774;SDS011;31340;51.402;0.016;2023-05-10T11:43:18;7.35;;;3.17;;
44774;SDS011;31340;51.402;0.016;2023-05-10T11:45:50;9.25;;;3.33;;
44774;SDS011;31340;51.402;0.016;2023-05-10T11:48:18;6.47;;;2.80;;
44774;SDS011;31340;51.402;0.016;2023-05-10T11:50:49;6.20;;;3.08;;
44774;SDS011;31340;51.402;0.016;2023-05-10T11:53:17;7.90;;;3.10;;
44774;SDS011;31340;51.402;0.016;2023-05-10T11:55:47;6.13;;;2.78;;
44774;SDS011;31340;51.402;0.016;2023-05-10T11:58:15;6.22;;;3.20;;
44774;SDS011;31340;51.402;0.016;2023-05-10T12:00:44;6.80;;;2.58;;
44774;SDS011;31340;51.402;0.016;2023-05-10T12:03:13;6.38;;;2.38;;
44774;SDS011;31340;51.402;0.016;2023-05-10T12:05:40;4.30;;;2.10;;
44774;SDS011;31340;51.402;0.016;2023-05-10T12:08:12;8.98;;;2.55;;
44774;SDS011;31340;51.402;0.016;2023-05-10T12:10:47;6.78;;;2.00;;
44774;SDS011;31340;51.402;0.016;2023-05-10T12:13:15;7.22;;;2.30;;
44774;SDS011;31340;51.402;0.016;2023-05-10T12:15:43;7.13;;;2.50;;
44774;SDS011;31340;51.402;0.016;2023-05-10T12:18:14;5.85;;;1.83;;
44774;SDS011;31340;51.402;0.016;2023-05-10T12:20:54;3.72;;;1.80;;
44774;SDS011;31340;51.402;0.016;2023-05-10T12:23:29;6.53;;;2.22;;
44774;SDS011;31340;51.402;0.016;2023-05-10T12:26:03;4.40;;;1.80;;
44774;SDS011;31340;51.402;0.016;2023-05-10T12:28:32;5.60;;;2.00;;
44774;SDS011;31340;51.402;0.016;2023-05-10T12:31:00;6.18;;;2.05;;
44774;SDS011;31340;51.402;0.016;2023-05-10T12:33:42;3.45;;;1.77;;
44774;SDS011;31340;51.402;0.016;2023-05-10T12:36:11;6.82;;;1.90;;
44774;SDS011;31340;51.402;0.016;2023-05-10T12:38:43;5.03;;;2.33;;
44774;SDS011;31340;51.402;0.016;2023-05-10T12:41:16;7.53;;;2.45;;
44774;SDS011;31340;51.402;0.016;2023-05-10T12:43:44;5.95;;;2.10;;
44774;SDS011;31340;51.402;0.016;2023-05-10T12:46:16;5.22;;;2.15;;
44774;SDS011;31340;51.402;0.016;2023-05-10T12:48:44;7.82;;;2.67;;
44774;SDS011;31340;51.402;0.016;2023-05-10T12:51:14;5.10;;;2.33;;
44774;SDS011;31340;51.402;0.016;2023-05-10T12:53:44;6.85;;;2.08;;
44774;SDS011;31340;51.402;0.016;2023-05-10T12:56:15;10.13;;;2.65;;
44774;SDS011;31340;51.402;0.016;2023-05-10T12:58:42;6.63;;;2.80;;
44774;SDS011;31340;51.402;0.016;2023-05-10T13:01:14;6.57;;;2.33;;
44774;SDS011;31340;51.402;0.016;2023-05-10T13:03:42;8.57;;;2.05;;
44774;SDS011;31340;51.402;0.016;2023-05-10T13:06:10;7.13;;;2.13;;
44774;SDS011;31340;51.402;0.016;2023-05-10T13:08:37;5.70;;;1.98;;
44774;SDS011;31340;51.402;0.016;2023-05-10T13:11:05;5.78;;;2.08;;
44774;SDS011;31340;51.402;0.016;2023-05-10T13:13:33;8.68;;;2.58;;
44774;SDS011;31340;51.402;0.016;2023-05-10T13:16:00;9.15;;;2.20;;
44774;SDS011;31340;51.402;0.016;2023-05-10T13:18:27;7.13;;;2.42;;
44774;SDS011;31340;51.402;0.016;2023-05-10T13:20:55;8.35;;;2.50;;
44774;SDS011;31340;51.402;0.016;2023-05-10T13:23:22;6.97;;;2.60;;
44774;SDS011;31340;51.402;0.016;2023-05-10T13:25:50;7.38;;;2.78;;
44774;SDS011;31340;51.402;0.016;2023-05-10T13:28:17;8.93;;;2.72;;
44774;SDS011;31340;51.402;0.016;2023-05-10T13:30:46;8.25;;;2.97;;
44774;SDS011;31340;51.402;0.016;2023-05-10T13:33:14;8.05;;;3.03;;
44774;SDS011;31340;51.402;0.016;2023-05-10T13:35:42;12.43;;;3.40;;
44774;SDS011;31340;51.402;0.016;2023-05-10T13:38:10;8.07;;;2.95;;
44774;SDS011;31340;51.402;0.016;2023-05-10T13:40:37;7.40;;;2.80;;
44774;SDS011;31340;51.402;0.016;2023-05-10T13:43:05;11.48;;;3.20;;
44774;SDS011;31340;51.402;0.016;2023-05-10T13:45:33;10.13;;;3.75;;
44774;SDS011;31340;51.402;0.016;2023-05-10T13:48:00;5.97;;;2.33;;
44774;SDS011;31340;51.402;0.016;2023-05-10T13:50:27;7.85;;;2.42;;
44774;SDS011;31340;51.402;0.016;2023-05-10T13:52:55;5.55;;;1.98;;
44774;SDS011;31340;51.402;0.016;2023-05-10T13:55:23;4.80;;;1.95;;
44774;SDS011;31340;51.402;0.016;2023-05-10T13:57:51;6.90;;;2.63;;
44774;SDS011;31340;51.402;0.016;2023-05-10T14:00:18;6.85;;;2.28;;
44774;SDS011;31340;51.402;0.016;2023-05-10T14:02:47;11.95;;;2.75;;
44774;SDS011;31340;51.402;0.016;2023-05-10T14:05:15;5.97;;;2.40;;
44774;SDS011;31340;51.402;0.016;2023-05-10T14:07:44;4.30;;;2.13;;
44774;SDS011;31340;51.402;0.016;2023-05-10T14:10:12;9.10;;;3.13;;
44774;SDS011;31340;51.402;0.016;2023-05-10T14:12:40;6.72;;;2.30;;
44774;SDS011;31340;51.402;0.016;2023-05-10T14:15:08;6.95;;;2.45;;
44774;SDS011;31340;51.402;0.016;2023-05-10T14:17:38;8.20;;;2.17;;
44774;SDS011;31340;51.402;0.016;2023-05-10T14:20:06;4.55;;;1.90;;
44774;SDS011;31340;51.402;0.016;2023-05-10T14:22:34;8.38;;;2.67;;
44774;SDS011;31340;51.402;0.016;2023-05-10T14:25:02;4.55;;;2.10;;
44774;SDS011;31340;51.402;0.016;2023-05-10T14:27:31;4.93;;;2.20;;
44774;SDS011;31340;51.402;0.016;2023-05-10T14:29:59;7.40;;;2.58;;
44774;SDS011;31340;51.402;0.016;2023-05-10T14:32:27;6.07;;;1.98;;
44774;SDS011;31340;51.402;0.016;2023-05-10T14:34:55;6.65;;;2.80;;
44774;SDS011;31340;51.402;0.016;2023-05-10T14:37:24;8.02;;;2.72;;
44774;SDS011;31340;51.402;0.016;2023-05-10T14:39:51;10.82;;;2.75;;
44774;SDS011;31340;51.402;0.016;2023-05-10T14:42:19;6.32;;;2.65;;
44774;SDS011;31340;51.402;0.016;2023-05-10T14:44:47;11.40;;;2.65;;
44774;SDS011;31340;51.402;0.016;2023-05-10T14:47:15;5.20;;;2.17;;
44774;SDS011;31340;51.402;0.016;2023-05-10T14:49:42;6.72;;;2.58;;
44774;SDS011;31340;51.402;0.016;2023-05-10T14:52:11;6.47;;;2.50;;
44774;SDS011;31340;51.402;0.016;2023-05-10T14:54:39;6.97;;;2.20;;
44774;SDS011;31340;51.402;0.016;2023-05-10T14:57:08;5.43;;;1.85;;
44774;SDS011;31340;51.402;0.016;2023-05-10T14:59:35;4.63;;;1.70;;
44774;SDS011;31340;51.402;0.016;2023-05-10T15:02:04;5.93;;;1.58;;
44774;SDS011;31340;51.402;0.016;2023-05-10T15:04:32;4.13;;;1.75;;
44774;SDS011;31340;51.402;0.016;2023-05-10T15:07:00;4.55;;;1.60;;
44774;SDS011;31340;51.402;0.016;2023-05-10T15:09:27;2.47;;;1.17;;
44774;SDS011;31340;51.402;0.016;2023-05-10T15:11:55;2.53;;;1.10;;
44774;SDS011;31340;51.402;0.016;2023-05-10T15:14:23;4.75;;;1.30;;
44774;SDS011;31340;51.402;0.016;2023-05-10T15:16:50;2.35;;;1.10;;
44774;SDS011;31340;51.402;0.016;2023-05-10T15:19:19;1.95;;;1.00;;
44774;SDS011;31340;51.402;0.016;2023-05-10T15:21:47;1.98;;;0.88;;
44774;SDS011;31340;51.402;0.016;2023-05-10T15:24:14;2.92;;;1.10;;